sensor_id;sensor_type;location;lat;lon;timestamp;P1;P2;P0
72023;PMS5003;59889;50.700;5.440;2023-05-10T00:00:54;1;1;
72023;PMS5003;59889;50.700;5.440;2023-05-10T00:03:20;1;1;
72023;PMS5003;59889;50.700;5.440;2023-05-10T00:05:45;2;2;
72023;PMS5003;59889;50.700;5.440;2023-05-10T00:08:11;1;1;
72023;PMS5003;59889;50.700;5.440;2023-05-10T00:10:37;0;0;
72023;PMS5003;59889;50.700;5.440;2023-05-10T00:13:02;1;1;
72023;PMS5003;59889;50.700;5.440;2023-05-10T00:15:28;1;1;
72023;PMS5003;59889;50.700;5.440;2023-05-10T00:17:54;1;1;
72023;PMS5003;59889;50.700;5.440;2023-05-10T00:20:19;1;1;
72023;PMS5003;59889;50.700;5.440;2023-05-10T00:22:45;1;1;
72023;PMS5003;59889;50.700;5.440;2023-05-10T00:25:10;1;1;
72023;PMS5003;59889;50.700;5.440;2023-05-10T00:27:36;1;1;
72023;PMS5003;59889;50.700;5.440;2023-05-10T00:30:01;0;0;
72023;PMS5003;59889;50.700;5.440;2023-05-10T00:32:26;1;1;
72023;PMS5003;59889;50.700;5.440;2023-05-10T00:34:51;1;1;
72023;PMS5003;59889;50.700;5.440;2023-05-10T00:37:17;1;1;
72023;PMS5003;59889;50.700;5.440;2023-05-10T00:39:41;1;1;
72023;PMS5003;59889;50.700;5.440;2023-05-10T00:42:07;0;0;
72023;PMS5003;59889;50.700;5.440;2023-05-10T00:44:33;1;1;
72023;PMS5003;59889;50.700;5.440;2023-05-10T00:46:59;1;1;
72023;PMS5003;59889;50.700;5.440;2023-05-10T00:49:25;1;1;
72023;PMS5003;59889;50.700;5.440;2023-05-10T00:51:51;1;1;
72023;PMS5003;59889;50.700;5.440;2023-05-10T00:54:17;2;2;
72023;PMS5003;59889;50.700;5.440;2023-05-10T00:56:43;1;1;
72023;PMS5003;59889;50.700;5.440;2023-05-10T00:59:08;1;1;
72023;PMS5003;59889;50.700;5.440;2023-05-10T01:01:34;2;2;
72023;PMS5003;59889;50.700;5.440;2023-05-10T01:04:00;2;2;
72023;PMS5003;59889;50.700;5.440;2023-05-10T01:06:26;0;0;
72023;PMS5003;59889;50.700;5.440;2023-05-10T01:08:52;1;1;
72023;PMS5003;59889;50.700;5.440;2023-05-10T01:11:18;2;1;
72023;PMS5003;59889;50.700;5.440;2023-05-10T01:13:44;1;1;
72023;PMS5003;59889;50.700;5.440;2023-05-10T01:16:09;1;1;
72023;PMS5003;59889;50.700;5.440;2023-05-10T01:18:36;0;0;
72023;PMS5003;59889;50.700;5.440;2023-05-10T01:21:06;1;1;
72023;PMS5003;59889;50.700;5.440;2023-05-10T01:26:01;1;1;
72023;PMS5003;59889;50.700;5.440;2023-05-10T01:33:10;2;2;
72023;PMS5003;59889;50.700;5.440;2023-05-10T01:35:37;2;2;
72023;PMS5003;59889;50.700;5.440;2023-05-10T01:38:04;1;1;
72023;PMS5003;59889;50.700;5.440;2023-05-10T01:40:29;1;1;
72023;PMS5003;59889;50.700;5.440;2023-05-10T01:42:54;2;2;
72023;PMS5003;59889;50.700;5.440;2023-05-10T01:45:21;2;2;
72023;PMS5003;59889;50.700;5.440;2023-05-10T01:47:46;1;1;
72023;PMS5003;59889;50.700;5.440;2023-05-10T01:50:10;1;1;
72023;PMS5003;59889;50.700;5.440;2023-05-10T01:52:36;1;1;
72023;PMS5003;59889;50.700;5.440;2023-05-10T01:55:04;1;1;
72023;PMS5003;59889;50.700;5.440;2023-05-10T01:57:29;1;1;
72023;PMS5003;59889;50.700;5.440;2023-05-10T01:59:53;2;2;
72023;PMS5003;59889;50.700;5.440;2023-05-10T02:02:20;2;2;
72023;PMS5003;59889;50.700;5.440;2023-05-10T02:04:45;2;2;
72023;PMS5003;59889;50.700;5.440;2023-05-10T02:07:11;2;2;
72023;PMS5003;59889;50.700;5.440;2023-05-10T02:09:37;2;2;
72023;PMS5003;59889;50.700;5.440;2023-05-10T02:12:03;2;1;
72023;PMS5003;59889;50.700;5.440;2023-05-10T02:14:29;2;2;
72023;PMS5003;59889;50.700;5.440;2023-05-10T02:16:53;1;1;
72023;PMS5003;59889;50.700;5.440;2023-05-10T02:19:19;0;0;
72023;PMS5003;59889;50.700;5.440;2023-05-10T02:21:44;1;1;
72023;PMS5003;59889;50.700;5.440;2023-05-10T02:24:09;2;2;
72023;PMS5003;59889;50.700;5.440;2023-05-10T02:26:34;2;2;
72023;PMS5003;59889;50.700;5.440;2023-05-10T02:29:00;1;1;
72023;PMS5003;59889;50.700;5.440;2023-05-10T02:31:26;1;1;
72023;PMS5003;59889;50.700;5.440;2023-05-10T02:33:52;2;2;
72023;PMS5003;59889;50.700;5.440;2023-05-10T02:36:18;1;1;
72023;PMS5003;59889;50.700;5.440;2023-05-10T02:38:43;0;0;
72023;PMS5003;59889;50.700;5.440;2023-05-10T02:41:08;2;2;
72023;PMS5003;59889;50.700;5.440;2023-05-10T02:43:33;2;2;
72023;PMS5003;59889;50.700;5.440;2023-05-10T02:45:58;2;2;
72023;PMS5003;59889;50.700;5.440;2023-05-10T02:48:23;3;3;
72023;PMS5003;59889;50.700;5.440;2023-05-10T02:50:48;2;1;
72023;PMS5003;59889;50.700;5.440;2023-05-10T02:53:15;1;1;
72023;PMS5003;59889;50.700;5.440;2023-05-10T02:55:40;2;2;
72023;PMS5003;59889;50.700;5.440;2023-05-10T02:58:03;2;2;
72023;PMS5003;59889;50.700;5.440;2023-05-10T03:00:29;1;0;
72023;PMS5003;59889;50.700;5.440;2023-05-10T03:02:54;2;2;
72023;PMS5003;59889;50.700;5.440;2023-05-10T03:05:19;2;2;
72023;PMS5003;59889;50.700;5.440;2023-05-10T03:07:44;2;2;
72023;PMS5003;59889;50.700;5.440;2023-05-10T03:10:09;2;2;
72023;PMS5003;59889;50.700;5.440;2023-05-10T03:12:39;1;1;
72023;PMS5003;59889;50.700;5.440;2023-05-10T03:15:00;2;2;
72023;PMS5003;59889;50.700;5.440;2023-05-10T03:17:28;3;2;
72023;PMS5003;59889;50.700;5.440;2023-05-10T03:19:51;2;2;
72023;PMS5003;59889;50.700;5.440;2023-05-10T03:22:14;2;2;
72023;PMS5003;59889;50.700;5.440;2023-05-10T03:24:39;2;2;
72023;PMS5003;59889;50.700;5.440;2023-05-10T03:27:04;1;1;
72023;PMS5003;59889;50.700;5.440;2023-05-10T03:29:30;1;1;
72023;PMS5003;59889;50.700;5.440;2023-05-10T03:31:55;2;1;
72023;PMS5003;59889;50.700;5.440;2023-05-10T03:34:23;2;2;
72023;PMS5003;59889;50.700;5.440;2023-05-10T03:36:45;1;1;
72023;PMS5003;59889;50.700;5.440;2023-05-10T03:39:10;2;2;
72023;PMS5003;59889;50.700;5.440;2023-05-10T03:41:36;0;0;
72023;PMS5003;59889;50.700;5.440;2023-05-10T03:44:01;2;2;
72023;PMS5003;59889;50.700;5.440;2023-05-10T03:46:27;1;1;
72023;PMS5003;59889;50.700;5.440;2023-05-10T03:48:52;2;2;
72023;PMS5003;59889;50.700;5.440;2023-05-10T03:51:17;3;3;
72023;PMS5003;59889;50.700;5.440;2023-05-10T03:53:43;2;2;
72023;PMS5003;59889;50.700;5.440;2023-05-10T03:56:08;2;2;
72023;PMS5003;59889;50.700;5.440;2023-05-10T03:58:33;2;2;
72023;PMS5003;59889;50.700;5.440;2023-05-10T04:00:58;1;1;
72023;PMS5003;59889;50.700;5.440;2023-05-10T04:03:23;1;1;
72023;PMS5003;59889;50.700;5.440;2023-05-10T04:05:48;2;2;
72023;PMS5003;59889;50.700;5.440;2023-05-10T04:08:13;1;1;
72023;PMS5003;59889;50.700;5.440;2023-05-10T04:10:38;2;1;
72023;PMS5003;59889;50.700;5.440;2023-05-10T04:13:03;2;2;
72023;PMS5003;59889;50.700;5.440;2023-05-10T04:15:28;2;2;
72023;PMS5003;59889;50.700;5.440;2023-05-10T04:17:54;2;2;
72023;PMS5003;59889;50.700;5.440;2023-05-10T04:20:19;2;2;
72023;PMS5003;59889;50.700;5.440;2023-05-10T04:22:44;2;1;
72023;PMS5003;59889;50.700;5.440;2023-05-10T04:25:09;2;2;
72023;PMS5003;59889;50.700;5.440;2023-05-10T04:27:34;2;2;
72023;PMS5003;59889;50.700;5.440;2023-05-10T04:29:59;2;2;
72023;PMS5003;59889;50.700;5.440;2023-05-10T04:32:24;1;1;
72023;PMS5003;59889;50.700;5.440;2023-05-10T04:34:49;3;3;
72023;PMS5003;59889;50.700;5.440;2023-05-10T04:37:14;1;1;
72023;PMS5003;59889;50.700;5.440;2023-05-10T04:39:39;2;2;
72023;PMS5003;59889;50.700;5.440;2023-05-10T04:42:04;3;3;
72023;PMS5003;59889;50.700;5.440;2023-05-10T04:44:29;7;7;
72023;PMS5003;59889;50.700;5.440;2023-05-10T04:46:55;7;7;
72023;PMS5003;59889;50.700;5.440;2023-05-10T04:49:20;8;8;
72023;PMS5003;59889;50.700;5.440;2023-05-10T04:51:45;8;8;
72023;PMS5003;59889;50.700;5.440;2023-05-10T04:54:10;7;6;
72023;PMS5003;59889;50.700;5.440;2023-05-10T04:56:35;8;7;
72023;PMS5003;59889;50.700;5.440;2023-05-10T04:59:00;8;8;
72023;PMS5003;59889;50.700;5.440;2023-05-10T05:01:25;6;5;
72023;PMS5003;59889;50.700;5.440;2023-05-10T05:03:50;8;7;
72023;PMS5003;59889;50.700;5.440;2023-05-10T05:06:15;9;9;
72023;PMS5003;59889;50.700;5.440;2023-05-10T05:08:40;10;7;
72023;PMS5003;59889;50.700;5.440;2023-05-10T05:11:05;7;7;
72023;PMS5003;59889;50.700;5.440;2023-05-10T05:13:30;8;7;
72023;PMS5003;59889;50.700;5.440;2023-05-10T05:15:55;8;7;
72023;PMS5003;59889;50.700;5.440;2023-05-10T05:18:21;5;5;
72023;PMS5003;59889;50.700;5.440;2023-05-10T05:20:46;6;4;
72023;PMS5003;59889;50.700;5.440;2023-05-10T05:23:11;6;6;
72023;PMS5003;59889;50.700;5.440;2023-05-10T05:25:36;7;6;
72023;PMS5003;59889;50.700;5.440;2023-05-10T05:28:01;6;6;
72023;PMS5003;59889;50.700;5.440;2023-05-10T05:30:26;7;6;
72023;PMS5003;59889;50.700;5.440;2023-05-10T05:32:51;6;6;
72023;PMS5003;59889;50.700;5.440;2023-05-10T05:35:16;6;6;
72023;PMS5003;59889;50.700;5.440;2023-05-10T05:37:41;5;4;
72023;PMS5003;59889;50.700;5.440;2023-05-10T05:40:07;9;5;
72023;PMS5003;59889;50.700;5.440;2023-05-10T05:42:31;6;6;
72023;PMS5003;59889;50.700;5.440;2023-05-10T05:44:56;6;6;
72023;PMS5003;59889;50.700;5.440;2023-05-10T05:47:22;5;5;
72023;PMS5003;59889;50.700;5.440;2023-05-10T05:49:47;6;6;
72023;PMS5003;59889;50.700;5.440;2023-05-10T05:52:12;6;6;
72023;PMS5003;59889;50.700;5.440;2023-05-10T05:54:37;5;5;
72023;PMS5003;59889;50.700;5.440;2023-05-10T05:57:02;7;6;
72023;PMS5003;59889;50.700;5.440;2023-05-10T05:59:27;5;5;
72023;PMS5003;59889;50.700;5.440;2023-05-10T06:01:52;5;5;
72023;PMS5003;59889;50.700;5.440;2023-05-10T06:04:17;6;6;
72023;PMS5003;59889;50.700;5.440;2023-05-10T06:06:42;6;6;
72023;PMS5003;59889;50.700;5.440;2023-05-10T06:09:07;5;5;
72023;PMS5003;59889;50.700;5.440;2023-05-10T06:11:32;6;6;
72023;PMS5003;59889;50.700;5.440;2023-05-10T06:13:57;6;5;
72023;PMS5003;59889;50.700;5.440;2023-05-10T06:16:22;5;5;
72023;PMS5003;59889;50.700;5.440;2023-05-10T06:18:47;5;5;
72023;PMS5003;59889;50.700;5.440;2023-05-10T06:21:12;6;6;
72023;PMS5003;59889;50.700;5.440;2023-05-10T06:23:38;6;5;
72023;PMS5003;59889;50.700;5.440;2023-05-10T06:26:02;5;5;
72023;PMS5003;59889;50.700;5.440;2023-05-10T06:28:28;4;4;
72023;PMS5003;59889;50.700;5.440;2023-05-10T06:30:53;6;5;
72023;PMS5003;59889;50.700;5.440;2023-05-10T06:33:18;5;5;
72023;PMS5003;59889;50.700;5.440;2023-05-10T06:35:43;5;5;
72023;PMS5003;59889;50.700;5.440;2023-05-10T06:38:08;6;6;
72023;PMS5003;59889;50.700;5.440;2023-05-10T06:40:33;6;6;
72023;PMS5003;59889;50.700;5.440;2023-05-10T06:42:58;5;5;
72023;PMS5003;59889;50.700;5.440;2023-05-10T06:45:23;3;3;
72023;PMS5003;59889;50.700;5.440;2023-05-10T06:47:48;7;6;
72023;PMS5003;59889;50.700;5.440;2023-05-10T06:50:13;4;4;
72023;PMS5003;59889;50.700;5.440;2023-05-10T06:52:38;5;5;
72023;PMS5003;59889;50.700;5.440;2023-05-10T06:55:04;7;7;
72023;PMS5003;59889;50.700;5.440;2023-05-10T06:57:28;6;5;
72023;PMS5003;59889;50.700;5.440;2023-05-10T06:59:53;5;5;
72023;PMS5003;59889;50.700;5.440;2023-05-10T07:02:18;6;6;
72023;PMS5003;59889;50.700;5.440;2023-05-10T07:04:43;5;5;
72023;PMS5003;59889;50.700;5.440;2023-05-10T07:07:08;6;5;
72023;PMS5003;59889;50.700;5.440;2023-05-10T07:09:33;7;5;
72023;PMS5003;59889;50.700;5.440;2023-05-10T07:11:58;5;5;
72023;PMS5003;59889;50.700;5.440;2023-05-10T07:14:23;3;3;
72023;PMS5003;59889;50.700;5.440;2023-05-10T07:16:48;4;4;
72023;PMS5003;59889;50.700;5.440;2023-05-10T07:19:13;4;4;
72023;PMS5003;59889;50.700;5.440;2023-05-10T07:21:38;6;5;
72023;PMS5003;59889;50.700;5.440;2023-05-10T07:24:03;5;4;
72023;PMS5003;59889;50.700;5.440;2023-05-10T07:26:28;8;6;
72023;PMS5003;59889;50.700;5.440;2023-05-10T07:28:53;11;7;
72023;PMS5003;59889;50.700;5.440;2023-05-10T07:31:18;5;4;
72023;PMS5003;59889;50.700;5.440;2023-05-10T07:33:43;4;4;
72023;PMS5003;59889;50.700;5.440;2023-05-10T07:36:08;5;4;
72023;PMS5003;59889;50.700;5.440;2023-05-10T07:38:33;5;4;
72023;PMS5003;59889;50.700;5.440;2023-05-10T07:40:59;6;5;
72023;PMS5003;59889;50.700;5.440;2023-05-10T07:43:24;4;3;
72023;PMS5003;59889;50.700;5.440;2023-05-10T07:45:48;4;4;
72023;PMS5003;59889;50.700;5.440;2023-05-10T07:48:14;5;5;
72023;PMS5003;59889;50.700;5.440;2023-05-10T07:50:39;5;5;
72023;PMS5003;59889;50.700;5.440;2023-05-10T07:53:04;3;3;
72023;PMS5003;59889;50.700;5.440;2023-05-10T07:55:29;3;3;
72023;PMS5003;59889;50.700;5.440;2023-05-10T07:57:54;6;5;
72023;PMS5003;59889;50.700;5.440;2023-05-10T08:00:19;5;4;
72023;PMS5003;59889;50.700;5.440;2023-05-10T08:02:44;4;3;
72023;PMS5003;59889;50.700;5.440;2023-05-10T08:05:09;5;4;
72023;PMS5003;59889;50.700;5.440;2023-05-10T08:07:34;3;3;
72023;PMS5003;59889;50.700;5.440;2023-05-10T08:09:59;4;3;
72023;PMS5003;59889;50.700;5.440;2023-05-10T08:12:24;4;4;
72023;PMS5003;59889;50.700;5.440;2023-05-10T08:14:49;5;4;
72023;PMS5003;59889;50.700;5.440;2023-05-10T08:17:14;3;3;
72023;PMS5003;59889;50.700;5.440;2023-05-10T08:19:39;5;3;
72023;PMS5003;59889;50.700;5.440;2023-05-10T08:22:04;4;4;
72023;PMS5003;59889;50.700;5.440;2023-05-10T08:24:29;5;3;
72023;PMS5003;59889;50.700;5.440;2023-05-10T08:26:54;4;4;
72023;PMS5003;59889;50.700;5.440;2023-05-10T08:29:19;7;6;
72023;PMS5003;59889;50.700;5.440;2023-05-10T08:31:44;5;4;
72023;PMS5003;59889;50.700;5.440;2023-05-10T08:34:09;3;2;
72023;PMS5003;59889;50.700;5.440;2023-05-10T08:36:34;4;4;
72023;PMS5003;59889;50.700;5.440;2023-05-10T08:38:59;3;3;
72023;PMS5003;59889;50.700;5.440;2023-05-10T08:41:24;5;5;
72023;PMS5003;59889;50.700;5.440;2023-05-10T08:43:49;3;3;
72023;PMS5003;59889;50.700;5.440;2023-05-10T08:46:14;4;4;
72023;PMS5003;59889;50.700;5.440;2023-05-10T08:48:39;6;5;
72023;PMS5003;59889;50.700;5.440;2023-05-10T08:51:04;5;4;
72023;PMS5003;59889;50.700;5.440;2023-05-10T08:53:29;2;2;
72023;PMS5003;59889;50.700;5.440;2023-05-10T08:55:54;3;3;
72023;PMS5003;59889;50.700;5.440;2023-05-10T08:58:19;2;2;
72023;PMS5003;59889;50.700;5.440;2023-05-10T09:00:44;3;3;
72023;PMS5003;59889;50.700;5.440;2023-05-10T09:03:09;4;3;
72023;PMS5003;59889;50.700;5.440;2023-05-10T09:05:35;4;2;
72023;PMS5003;59889;50.700;5.440;2023-05-10T09:07:59;3;3;
72023;PMS5003;59889;50.700;5.440;2023-05-10T09:10:24;4;3;
72023;PMS5003;59889;50.700;5.440;2023-05-10T09:12:49;2;2;
72023;PMS5003;59889;50.700;5.440;2023-05-10T09:15:14;1;1;
72023;PMS5003;59889;50.700;5.440;2023-05-10T09:17:39;3;3;
72023;PMS5003;59889;50.700;5.440;2023-05-10T09:20:04;3;3;
72023;PMS5003;59889;50.700;5.440;2023-05-10T09:22:29;3;3;
72023;PMS5003;59889;50.700;5.440;2023-05-10T09:29:44;4;4;
72023;PMS5003;59889;50.700;5.440;2023-05-10T09:32:09;2;2;
72023;PMS5003;59889;50.700;5.440;2023-05-10T09:34:34;2;2;
72023;PMS5003;59889;50.700;5.440;2023-05-10T09:37:00;2;2;
72023;PMS5003;59889;50.700;5.440;2023-05-10T09:39:29;2;2;
72023;PMS5003;59889;50.700;5.440;2023-05-10T09:41:49;3;3;
72023;PMS5003;59889;50.700;5.440;2023-05-10T09:44:16;3;3;
72023;PMS5003;59889;50.700;5.440;2023-05-10T09:46:39;3;3;
72023;PMS5003;59889;50.700;5.440;2023-05-10T09:49:04;4;4;
72023;PMS5003;59889;50.700;5.440;2023-05-10T09:51:29;2;2;
72023;PMS5003;59889;50.700;5.440;2023-05-10T09:58:44;3;3;
72023;PMS5003;59889;50.700;5.440;2023-05-10T10:01:10;2;2;
72023;PMS5003;59889;50.700;5.440;2023-05-10T10:03:34;2;2;
72023;PMS5003;59889;50.700;5.440;2023-05-10T10:05:59;3;2;
72023;PMS5003;59889;50.700;5.440;2023-05-10T10:08:24;3;3;
72023;PMS5003;59889;50.700;5.440;2023-05-10T10:10:49;2;2;
72023;PMS5003;59889;50.700;5.440;2023-05-10T10:13:14;2;2;
72023;PMS5003;59889;50.700;5.440;2023-05-10T10:15:39;3;3;
72023;PMS5003;59889;50.700;5.440;2023-05-10T10:18:04;2;2;
72023;PMS5003;59889;50.700;5.440;2023-05-10T10:20:29;3;2;
72023;PMS5003;59889;50.700;5.440;2023-05-10T10:22:54;3;3;
72023;PMS5003;59889;50.700;5.440;2023-05-10T10:25:20;2;2;
72023;PMS5003;59889;50.700;5.440;2023-05-10T10:27:46;2;2;
72023;PMS5003;59889;50.700;5.440;2023-05-10T10:30:14;2;2;
72023;PMS5003;59889;50.700;5.440;2023-05-10T10:32:38;3;3;
72023;PMS5003;59889;50.700;5.440;2023-05-10T10:34:59;3;3;
72023;PMS5003;59889;50.700;5.440;2023-05-10T10:39:51;3;3;
72023;PMS5003;59889;50.700;5.440;2023-05-10T10:44:43;4;3;
72023;PMS5003;59889;50.700;5.440;2023-05-10T10:47:20;1;1;
72023;PMS5003;59889;50.700;5.440;2023-05-10T10:49:33;2;2;
72023;PMS5003;59889;50.700;5.440;2023-05-10T10:54:26;3;3;
72023;PMS5003;59889;50.700;5.440;2023-05-10T10:59:13;4;3;
72023;PMS5003;59889;50.700;5.440;2023-05-10T11:01:38;3;3;
72023;PMS5003;59889;50.700;5.440;2023-05-10T11:06:29;4;3;
72023;PMS5003;59889;50.700;5.440;2023-05-10T11:08:53;1;1;
72023;PMS5003;59889;50.700;5.440;2023-05-10T11:11:18;3;3;
72023;PMS5003;59889;50.700;5.440;2023-05-10T11:13:43;3;3;
72023;PMS5003;59889;50.700;5.440;2023-05-10T11:16:10;2;2;
72023;PMS5003;59889;50.700;5.440;2023-05-10T11:18:33;4;3;
72023;PMS5003;59889;50.700;5.440;2023-05-10T11:20:58;3;3;
72023;PMS5003;59889;50.700;5.440;2023-05-10T11:23:23;2;2;
72023;PMS5003;59889;50.700;5.440;2023-05-10T11:25:48;2;2;
72023;PMS5003;59889;50.700;5.440;2023-05-10T11:28:13;1;1;
72023;PMS5003;59889;50.700;5.440;2023-05-10T11:30:38;3;3;
72023;PMS5003;59889;50.700;5.440;2023-05-10T11:33:03;4;3;
72023;PMS5003;59889;50.700;5.440;2023-05-10T11:35:28;1;1;
72023;PMS5003;59889;50.700;5.440;2023-05-10T11:37:53;3;3;
72023;PMS5003;59889;50.700;5.440;2023-05-10T11:40:18;3;2;
72023;PMS5003;59889;50.700;5.440;2023-05-10T11:42:43;2;1;
72023;PMS5003;59889;50.700;5.440;2023-05-10T11:45:08;3;2;
72023;PMS5003;59889;50.700;5.440;2023-05-10T11:47:33;3;3;
72023;PMS5003;59889;50.700;5.440;2023-05-10T11:49:58;3;2;
72023;PMS5003;59889;50.700;5.440;2023-05-10T11:52:23;3;2;
72023;PMS5003;59889;50.700;5.440;2023-05-10T11:54:50;2;2;
72023;PMS5003;59889;50.700;5.440;2023-05-10T11:57:13;3;3;
72023;PMS5003;59889;50.700;5.440;2023-05-10T11:59:38;2;2;
72023;PMS5003;59889;50.700;5.440;2023-05-10T12:02:03;4;3;
72023;PMS5003;59889;50.700;5.440;2023-05-10T12:04:28;2;2;
72023;PMS5003;59889;50.700;5.440;2023-05-10T12:06:53;2;2;
72023;PMS5003;59889;50.700;5.440;2023-05-10T12:09:18;2;2;
72023;PMS5003;59889;50.700;5.440;2023-05-10T12:11:44;3;3;
72023;PMS5003;59889;50.700;5.440;2023-05-10T12:14:09;2;2;
72023;PMS5003;59889;50.700;5.440;2023-05-10T12:16:34;3;3;
72023;PMS5003;59889;50.700;5.440;2023-05-10T12:18:59;2;2;
72023;PMS5003;59889;50.700;5.440;2023-05-10T12:21:24;3;3;
72023;PMS5003;59889;50.700;5.440;2023-05-10T12:23:49;3;2;
72023;PMS5003;59889;50.700;5.440;2023-05-10T12:26:14;3;3;
72023;PMS5003;59889;50.700;5.440;2023-05-10T12:28:39;3;3;
72023;PMS5003;59889;50.700;5.440;2023-05-10T12:31:05;1;1;
72023;PMS5003;59889;50.700;5.440;2023-05-10T12:35:54;3;3;
72023;PMS5003;59889;50.700;5.440;2023-05-10T12:38:24;2;2;
72023;PMS5003;59889;50.700;5.440;2023-05-10T12:40:44;2;2;
72023;PMS5003;59889;50.700;5.440;2023-05-10T12:43:09;2;2;
72023;PMS5003;59889;50.700;5.440;2023-05-10T12:45:34;2;2;
72023;PMS5003;59889;50.700;5.440;2023-05-10T12:47:59;3;3;
72023;PMS5003;59889;50.700;5.440;2023-05-10T12:50:24;3;3;
72023;PMS5003;59889;50.700;5.440;2023-05-10T12:52:49;2;2;
72023;PMS5003;59889;50.700;5.440;2023-05-10T12:55:15;2;2;
72023;PMS5003;59889;50.700;5.440;2023-05-10T12:57:40;2;2;
72023;PMS5003;59889;50.700;5.440;2023-05-10T13:00:06;3;3;
72023;PMS5003;59889;50.700;5.440;2023-05-10T13:02:30;3;3;
72023;PMS5003;59889;50.700;5.440;2023-05-10T13:04:55;3;2;
72023;PMS5003;59889;50.700;5.440;2023-05-10T13:07:20;3;3;
72023;PMS5003;59889;50.700;5.440;2023-05-10T13:09:45;3;3;
72023;PMS5003;59889;50.700;5.440;2023-05-10T13:12:10;3;2;
72023;PMS5003;59889;50.700;5.440;2023-05-10T13:14:35;2;2;
72023;PMS5003;59889;50.700;5.440;2023-05-10T13:17:00;2;1;
72023;PMS5003;59889;50.700;5.440;2023-05-10T13:19:25;2;2;
72023;PMS5003;59889;50.700;5.440;2023-05-10T13:21:50;1;1;
72023;PMS5003;59889;50.700;5.440;2023-05-10T13:24:15;3;2;
72023;PMS5003;59889;50.700;5.440;2023-05-10T13:26:40;1;1;
72023;PMS5003;59889;50.700;5.440;2023-05-10T13:29:05;2;2;
72023;PMS5003;59889;50.700;5.440;2023-05-10T13:31:30;2;2;
72023;PMS5003;59889;50.700;5.440;2023-05-10T13:33:55;2;2;
72023;PMS5003;59889;50.700;5.440;2023-05-10T13:36:20;2;2;
72023;PMS5003;59889;50.700;5.440;2023-05-10T13:38:46;1;1;
72023;PMS5003;59889;50.700;5.440;2023-05-10T13:41:11;2;2;
72023;PMS5003;59889;50.700;5.440;2023-05-10T13:43:36;2;2;
72023;PMS5003;59889;50.700;5.440;2023-05-10T13:46:02;2;2;
72023;PMS5003;59889;50.700;5.440;2023-05-10T13:48:27;3;2;
72023;PMS5003;59889;50.700;5.440;2023-05-10T13:50:52;1;1;
72023;PMS5003;59889;50.700;5.440;2023-05-10T13:53:17;2;2;
72023;PMS5003;59889;50.700;5.440;2023-05-10T13:55:43;2;2;
72023;PMS5003;59889;50.700;5.440;2023-05-10T13:58:08;3;2;
72023;PMS5003;59889;50.700;5.440;2023-05-10T14:00:33;2;2;
72023;PMS5003;59889;50.700;5.440;2023-05-10T14:02:59;3;2;
72023;PMS5003;59889;50.700;5.440;2023-05-10T14:05:24;1;1;
72023;PMS5003;59889;50.700;5.440;2023-05-10T14:07:49;3;3;
72023;PMS5003;59889;50.700;5.440;2023-05-10T14:10:14;1;1;
72023;PMS5003;59889;50.700;5.440;2023-05-10T14:12:39;3;3;
72023;PMS5003;59889;50.700;5.440;2023-05-10T14:15:04;2;2;
72023;PMS5003;59889;50.700;5.440;2023-05-10T14:17:29;3;3;
72023;PMS5003;59889;50.700;5.440;2023-05-10T14:19:54;2;2;
72023;PMS5003;59889;50.700;5.440;2023-05-10T14:22:19;2;2;
72023;PMS5003;59889;50.700;5.440;2023-05-10T14:24:44;2;2;
72023;PMS5003;59889;50.700;5.440;2023-05-10T14:27:09;2;2;
72023;PMS5003;59889;50.700;5.440;2023-05-10T14:29:34;1;1;
72023;PMS5003;59889;50.700;5.440;2023-05-10T14:32:00;1;1;
72023;PMS5003;59889;50.700;5.440;2023-05-10T14:34:25;2;2;
72023;PMS5003;59889;50.700;5.440;2023-05-10T14:36:50;2;2;
72023;PMS5003;59889;50.700;5.440;2023-05-10T14:39:15;2;2;
72023;PMS5003;59889;50.700;5.440;2023-05-10T14:41:40;1;1;
72023;PMS5003;59889;50.700;5.440;2023-05-10T14:44:05;2;2;
72023;PMS5003;59889;50.700;5.440;2023-05-10T14:46:30;2;2;
72023;PMS5003;59889;50.700;5.440;2023-05-10T14:48:55;1;1;
72023;PMS5003;59889;50.700;5.440;2023-05-10T14:51:20;2;2;
72023;PMS5003;59889;50.700;5.440;2023-05-10T14:53:45;4;2;
72023;PMS5003;59889;50.700;5.440;2023-05-10T14:56:10;3;2;
72023;PMS5003;59889;50.700;5.440;2023-05-10T14:58:35;1;1;
72023;PMS5003;59889;50.700;5.440;2023-05-10T15:01:01;3;3;
72023;PMS5003;59889;50.700;5.440;2023-05-10T15:03:26;2;2;
72023;PMS5003;59889;50.700;5.440;2023-05-10T15:05:52;3;3;
72023;PMS5003;59889;50.700;5.440;2023-05-10T15:08:18;1;1;
72023;PMS5003;59889;50.700;5.440;2023-05-10T15:10:44;1;1;
72023;PMS5003;59889;50.700;5.440;2023-05-10T15:13:09;1;1;
72023;PMS5003;59889;50.700;5.440;2023-05-10T15:15:34;2;2;
72023;PMS5003;59889;50.700;5.440;2023-05-10T15:17:59;1;1;
72023;PMS5003;59889;50.700;5.440;2023-05-10T15:20:24;2;2;
72023;PMS5003;59889;50.700;5.440;2023-05-10T15:22:49;3;2;
72023;PMS5003;59889;50.700;5.440;2023-05-10T15:25:14;3;2;
72023;PMS5003;59889;50.700;5.440;2023-05-10T15:27:40;2;1;
72023;PMS5003;59889;50.700;5.440;2023-05-10T15:30:05;1;1;
72023;PMS5003;59889;50.700;5.440;2023-05-10T15:32:30;4;3;
72023;PMS5003;59889;50.700;5.440;2023-05-10T15:34:55;1;1;
72023;PMS5003;59889;50.700;5.440;2023-05-10T15:37:20;2;2;
72023;PMS5003;59889;50.700;5.440;2023-05-10T15:39:45;1;1;
72023;PMS5003;59889;50.700;5.440;2023-05-10T15:42:10;1;1;
72023;PMS5003;59889;50.700;5.440;2023-05-10T15:44:35;3;3;
72023;PMS5003;59889;50.700;5.440;2023-05-10T15:47:00;4;2;
72023;PMS5003;59889;50.700;5.440;2023-05-10T15:49:25;2;2;
72023;PMS5003;59889;50.700;5.440;2023-05-10T15:51:50;2;2;
72023;PMS5003;59889;50.700;5.440;2023-05-10T15:54:15;2;2;
72023;PMS5003;59889;50.700;5.440;2023-05-10T15:56:40;2;2;
72023;PMS5003;59889;50.700;5.440;2023-05-10T15:59:05;2;2;
72023;PMS5003;59889;50.700;5.440;2023-05-10T16:01:30;2;2;
72023;PMS5003;59889;50.700;5.440;2023-05-10T16:03:55;2;2;
72023;PMS5003;59889;50.700;5.440;2023-05-10T16:06:20;2;2;
72023;PMS5003;59889;50.700;5.440;2023-05-10T16:08:45;2;1;
72023;PMS5003;59889;50.700;5.440;2023-05-10T16:11:10;4;2;
72023;PMS5003;59889;50.700;5.440;2023-05-10T16:13:35;1;1;
72023;PMS5003;59889;50.700;5.440;2023-05-10T16:16:00;2;2;
72023;PMS5003;59889;50.700;5.440;2023-05-10T16:18:25;2;2;
72023;PMS5003;59889;50.700;5.440;2023-05-10T16:20:50;2;2;
72023;PMS5003;59889;50.700;5.440;2023-05-10T16:23:15;3;1;
72023;PMS5003;59889;50.700;5.440;2023-05-10T16:25:40;4;3;
72023;PMS5003;59889;50.700;5.440;2023-05-10T16:28:05;2;2;
72023;PMS5003;59889;50.700;5.440;2023-05-10T16:30:30;1;1;
72023;PMS5003;59889;50.700;5.440;2023-05-10T16:32:55;1;1;
72023;PMS5003;59889;50.700;5.440;2023-05-10T16:35:20;2;2;
72023;PMS5003;59889;50.700;5.440;2023-05-10T16:37:45;2;2;
72023;PMS5003;59889;50.700;5.440;2023-05-10T16:40:10;1;1;
72023;PMS5003;59889;50.700;5.440;2023-05-10T16:42:35;2;2;
72023;PMS5003;59889;50.700;5.440;2023-05-10T16:45:00;2;2;
72023;PMS5003;59889;50.700;5.440;2023-05-10T16:47:25;2;2;
72023;PMS5003;59889;50.700;5.440;2023-05-10T16:49:50;2;2;
72023;PMS5003;59889;50.700;5.440;2023-05-10T16:52:15;2;2;
72023;PMS5003;59889;50.700;5.440;2023-05-10T16:54:40;2;2;
72023;PMS5003;59889;50.700;5.440;2023-05-10T16:57:05;2;2;
72023;PMS5003;59889;50.700;5.440;2023-05-10T16:59:30;2;1;
72023;PMS5003;59889;50.700;5.440;2023-05-10T17:01:55;2;2;
72023;PMS5003;59889;50.700;5.440;2023-05-10T17:04:20;2;2;
72023;PMS5003;59889;50.700;5.440;2023-05-10T17:06:45;3;2;